sensor_id;sensor_type;location;lat;lon;timestamp;P1;durP1;ratioP1;P2;durP2;ratioP2
9228;SDS011;4649;42.644;23.284;2022-08-05T00:00:58;2.70;;;2.20;;
9228;SDS011;4649;42.644;23.284;2022-08-05T00:03:25;2.00;;;2.00;;
9228;SDS011;4649;42.644;23.284;2022-08-05T00:05:53;2.37;;;2.23;;
9228;SDS011;4649;42.644;23.284;2022-08-05T00:08:20;2.53;;;2.43;;
9228;SDS011;4649;42.644;23.284;2022-08-05T00:10:47;3.33;;;2.30;;
9228;SDS011;4649;42.644;23.284;2022-08-05T00:13:13;2.20;;;2.10;;
9228;SDS011;4649;42.644;23.284;2022-08-05T00:15:40;3.90;;;2.50;;
9228;SDS011;4649;42.644;23.284;2022-08-05T00:18:07;3.13;;;2.20;;
9228;SDS011;4649;42.644;23.284;2022-08-05T00:20:33;2.93;;;2.10;;
9228;SDS011;4649;42.644;23.284;2022-08-05T00:23:01;2.73;;;2.13;;
9228;SDS011;4649;42.644;23.284;2022-08-05T00:25:28;2.57;;;2.20;;
9228;SDS011;4649;42.644;23.284;2022-08-05T00:27:55;2.43;;;2.33;;
9228;SDS011;4649;42.644;23.284;2022-08-05T00:30:21;2.63;;;2.50;;
9228;SDS011;4649;42.644;23.284;2022-08-05T00:32:48;2.30;;;2.10;;
9228;SDS011;4649;42.644;23.284;2022-08-05T00:35:15;2.50;;;2.40;;
9228;SDS011;4649;42.644;23.284;2022-08-05T00:37:42;2.73;;;2.63;;
9228;SDS011;4649;42.644;23.284;2022-08-05T00:40:10;3.10;;;2.03;;
9228;SDS011;4649;42.644;23.284;2022-08-05T00:42:37;2.77;;;2.57;;
9228;SDS011;4649;42.644;23.284;2022-08-05T00:45:06;4.67;;;2.30;;
9228;SDS011;4649;42.644;23.284;2022-08-05T00:47:34;2.63;;;2.47;;
9228;SDS011;4649;42.644;23.284;2022-08-05T00:50:01;2.50;;;2.40;;
9228;SDS011;4649;42.644;23.284;2022-08-05T00:52:28;2.20;;;2.10;;
9228;SDS011;4649;42.644;23.284;2022-08-05T00:54:55;2.47;;;2.37;;
9228;SDS011;4649;42.644;23.284;2022-08-05T00:57:23;2.47;;;2.37;;
9228;SDS011;4649;42.644;23.284;2022-08-05T00:59:50;2.40;;;2.30;;
9228;SDS011;4649;42.644;23.284;2022-08-05T01:02:16;2.67;;;1.93;;
9228;SDS011;4649;42.644;23.284;2022-08-05T01:04:43;2.03;;;1.83;;
9228;SDS011;4649;42.644;23.284;2022-08-05T01:07:10;2.20;;;2.10;;
9228;SDS011;4649;42.644;23.284;2022-08-05T01:09:37;2.67;;;2.57;;
9228;SDS011;4649;42.644;23.284;2022-08-05T01:12:05;3.20;;;2.70;;
9228;SDS011;4649;42.644;23.284;2022-08-05T01:14:36;2.70;;;2.60;;
9228;SDS011;4649;42.644;23.284;2022-08-05T01:17:08;3.07;;;2.97;;
9228;SDS011;4649;42.644;23.284;2022-08-05T01:19:40;3.50;;;3.30;;
9228;SDS011;4649;42.644;23.284;2022-08-05T01:25:26;2.27;;;2.13;;
9228;SDS011;4649;42.644;23.284;2022-08-05T01:30:58;3.73;;;2.70;;
9228;SDS011;4649;42.644;23.284;2022-08-05T01:33:31;2.73;;;2.43;;
9228;SDS011;4649;42.644;23.284;2022-08-05T01:36:07;2.73;;;2.63;;
9228;SDS011;4649;42.644;23.284;2022-08-05T01:38:38;2.60;;;2.50;;
9228;SDS011;4649;42.644;23.284;2022-08-05T01:41:06;4.17;;;2.53;;
9228;SDS011;4649;42.644;23.284;2022-08-05T01:43:35;3.17;;;2.30;;
9228;SDS011;4649;42.644;23.284;2022-08-05T01:46:03;2.60;;;2.40;;
9228;SDS011;4649;42.644;23.284;2022-08-05T01:48:30;2.03;;;2.03;;
9228;SDS011;4649;42.644;23.284;2022-08-05T01:51:01;2.93;;;2.77;;
9228;SDS011;4649;42.644;23.284;2022-08-05T01:53:29;3.03;;;2.50;;
9228;SDS011;4649;42.644;23.284;2022-08-05T01:55:59;4.23;;;2.83;;
9228;SDS011;4649;42.644;23.284;2022-08-05T01:58:27;2.83;;;2.63;;
9228;SDS011;4649;42.644;23.284;2022-08-05T02:00:57;2.30;;;2.20;;
9228;SDS011;4649;42.644;23.284;2022-08-05T02:03:27;3.13;;;2.93;;
9228;SDS011;4649;42.644;23.284;2022-08-05T02:05:58;2.87;;;2.77;;
9228;SDS011;4649;42.644;23.284;2022-08-05T02:08:27;2.93;;;2.73;;
9228;SDS011;4649;42.644;23.284;2022-08-05T02:10:55;5.93;;;3.10;;
9228;SDS011;4649;42.644;23.284;2022-08-05T02:13:31;2.73;;;2.53;;
9228;SDS011;4649;42.644;23.284;2022-08-05T02:16:03;2.60;;;2.50;;
9228;SDS011;4649;42.644;23.284;2022-08-05T02:18:38;3.57;;;2.77;;
9228;SDS011;4649;42.644;23.284;2022-08-05T02:21:08;3.00;;;2.80;;
9228;SDS011;4649;42.644;23.284;2022-08-05T02:23:39;3.90;;;3.37;;
9228;SDS011;4649;42.644;23.284;2022-08-05T02:26:08;6.33;;;3.20;;
9228;SDS011;4649;42.644;23.284;2022-08-05T02:28:37;3.20;;;3.10;;
9228;SDS011;4649;42.644;23.284;2022-08-05T02:31:08;2.90;;;2.70;;
9228;SDS011;4649;42.644;23.284;2022-08-05T02:33:39;2.90;;;2.80;;
9228;SDS011;4649;42.644;23.284;2022-08-05T02:36:10;2.77;;;2.67;;
9228;SDS011;4649;42.644;23.284;2022-08-05T02:38:40;2.93;;;2.83;;
9228;SDS011;4649;42.644;23.284;2022-08-05T02:41:09;3.27;;;3.00;;
9228;SDS011;4649;42.644;23.284;2022-08-05T02:43:37;4.13;;;3.40;;
9228;SDS011;4649;42.644;23.284;2022-08-05T02:46:07;2.63;;;2.53;;
9228;SDS011;4649;42.644;23.284;2022-08-05T02:48:36;2.70;;;2.50;;
9228;SDS011;4649;42.644;23.284;2022-08-05T02:51:04;3.63;;;2.50;;
9228;SDS011;4649;42.644;23.284;2022-08-05T02:53:31;2.47;;;2.37;;
9228;SDS011;4649;42.644;23.284;2022-08-05T02:55:59;2.77;;;2.67;;
9228;SDS011;4649;42.644;23.284;2022-08-05T02:58:27;3.03;;;2.83;;
9228;SDS011;4649;42.644;23.284;2022-08-05T03:00:54;2.90;;;2.70;;
9228;SDS011;4649;42.644;23.284;2022-08-05T03:03:24;4.60;;;3.30;;
9228;SDS011;4649;42.644;23.284;2022-08-05T03:05:53;2.50;;;2.30;;
9228;SDS011;4649;42.644;23.284;2022-08-05T03:08:21;2.70;;;2.50;;
9228;SDS011;4649;42.644;23.284;2022-08-05T03:10:49;2.67;;;2.57;;
9228;SDS011;4649;42.644;23.284;2022-08-05T03:13:16;2.97;;;2.87;;
9228;SDS011;4649;42.644;23.284;2022-08-05T03:15:43;2.50;;;2.30;;
9228;SDS011;4649;42.644;23.284;2022-08-05T03:18:11;2.23;;;2.13;;
9228;SDS011;4649;42.644;23.284;2022-08-05T03:20:39;4.50;;;2.77;;
9228;SDS011;4649;42.644;23.284;2022-08-05T03:23:07;6.47;;;2.70;;
9228;SDS011;4649;42.644;23.284;2022-08-05T03:25:35;2.33;;;2.23;;
9228;SDS011;4649;42.644;23.284;2022-08-05T03:28:03;2.63;;;2.53;;
9228;SDS011;4649;42.644;23.284;2022-08-05T03:30:32;2.67;;;2.47;;
9228;SDS011;4649;42.644;23.284;2022-08-05T03:32:59;2.63;;;2.53;;
9228;SDS011;4649;42.644;23.284;2022-08-05T03:35:27;2.27;;;2.17;;
9228;SDS011;4649;42.644;23.284;2022-08-05T03:37:56;4.20;;;2.53;;
9228;SDS011;4649;42.644;23.284;2022-08-05T03:40:24;3.23;;;3.03;;
9228;SDS011;4649;42.644;23.284;2022-08-05T03:42:51;3.40;;;3.10;;
9228;SDS011;4649;42.644;23.284;2022-08-05T03:45:17;2.73;;;2.63;;
9228;SDS011;4649;42.644;23.284;2022-08-05T03:47:45;3.10;;;2.90;;
9228;SDS011;4649;42.644;23.284;2022-08-05T03:50:12;2.60;;;2.50;;
9228;SDS011;4649;42.644;23.284;2022-08-05T03:52:41;5.00;;;2.13;;
9228;SDS011;4649;42.644;23.284;2022-08-05T03:55:16;2.87;;;2.63;;
9228;SDS011;4649;42.644;23.284;2022-08-05T03:57:47;2.43;;;2.27;;
9228;SDS011;4649;42.644;23.284;2022-08-05T04:00:17;2.90;;;2.80;;
9228;SDS011;4649;42.644;23.284;2022-08-05T04:02:47;3.03;;;2.93;;
9228;SDS011;4649;42.644;23.284;2022-08-05T04:05:16;4.13;;;2.20;;
9228;SDS011;4649;42.644;23.284;2022-08-05T04:07:44;2.93;;;2.83;;
9228;SDS011;4649;42.644;23.284;2022-08-05T04:10:30;5.40;;;2.60;;
9228;SDS011;4649;42.644;23.284;2022-08-05T04:12:58;2.60;;;2.50;;
9228;SDS011;4649;42.644;23.284;2022-08-05T04:15:25;6.83;;;2.47;;
9228;SDS011;4649;42.644;23.284;2022-08-05T04:17:52;9.33;;;2.80;;
9228;SDS011;4649;42.644;23.284;2022-08-05T04:20:20;5.03;;;2.83;;
9228;SDS011;4649;42.644;23.284;2022-08-05T04:22:48;4.43;;;3.20;;
9228;SDS011;4649;42.644;23.284;2022-08-05T04:25:15;2.93;;;2.73;;
9228;SDS011;4649;42.644;23.284;2022-08-05T04:27:43;3.00;;;2.80;;
9228;SDS011;4649;42.644;23.284;2022-08-05T04:30:10;2.60;;;2.50;;
9228;SDS011;4649;42.644;23.284;2022-08-05T04:32:37;3.20;;;3.00;;
9228;SDS011;4649;42.644;23.284;2022-08-05T04:35:04;4.70;;;3.10;;
9228;SDS011;4649;42.644;23.284;2022-08-05T04:37:31;3.43;;;2.60;;
9228;SDS011;4649;42.644;23.284;2022-08-05T04:39:58;8.37;;;3.43;;
9228;SDS011;4649;42.644;23.284;2022-08-05T04:42:25;3.03;;;2.70;;
9228;SDS011;4649;42.644;23.284;2022-08-05T04:44:53;3.07;;;2.70;;
9228;SDS011;4649;42.644;23.284;2022-08-05T04:47:19;3.17;;;3.03;;
9228;SDS011;4649;42.644;23.284;2022-08-05T04:49:46;3.30;;;3.10;;
9228;SDS011;4649;42.644;23.284;2022-08-05T04:52:13;3.67;;;3.37;;
9228;SDS011;4649;42.644;23.284;2022-08-05T04:54:40;3.67;;;3.40;;
9228;SDS011;4649;42.644;23.284;2022-08-05T04:57:07;3.43;;;3.13;;
9228;SDS011;4649;42.644;23.284;2022-08-05T04:59:33;3.50;;;3.20;;
9228;SDS011;4649;42.644;23.284;2022-08-05T05:02:01;5.83;;;3.90;;
9228;SDS011;4649;42.644;23.284;2022-08-05T05:04:28;4.23;;;3.27;;
9228;SDS011;4649;42.644;23.284;2022-08-05T05:06:55;4.70;;;3.63;;
9228;SDS011;4649;42.644;23.284;2022-08-05T05:09:21;4.00;;;3.67;;
9228;SDS011;4649;42.644;23.284;2022-08-05T05:11:48;4.10;;;3.80;;
9228;SDS011;4649;42.644;23.284;2022-08-05T05:14:15;5.40;;;3.57;;
9228;SDS011;4649;42.644;23.284;2022-08-05T05:16:41;8.03;;;4.70;;
9228;SDS011;4649;42.644;23.284;2022-08-05T05:19:10;4.53;;;3.88;;
9228;SDS011;4649;42.644;23.284;2022-08-05T05:21:36;3.88;;;3.67;;
9228;SDS011;4649;42.644;23.284;2022-08-05T05:24:03;5.00;;;3.67;;
9228;SDS011;4649;42.644;23.284;2022-08-05T05:26:30;7.80;;;4.60;;
9228;SDS011;4649;42.644;23.284;2022-08-05T05:28:57;5.43;;;3.38;;
9228;SDS011;4649;42.644;23.284;2022-08-05T05:31:24;3.53;;;3.33;;
9228;SDS011;4649;42.644;23.284;2022-08-05T05:33:50;11.60;;;3.90;;
9228;SDS011;4649;42.644;23.284;2022-08-05T05:36:18;8.70;;;3.92;;
9228;SDS011;4649;42.644;23.284;2022-08-05T05:38:45;3.92;;;3.60;;
9228;SDS011;4649;42.644;23.284;2022-08-05T05:41:12;14.27;;;4.35;;
9228;SDS011;4649;42.644;23.284;2022-08-05T05:43:39;4.30;;;3.85;;
9228;SDS011;4649;42.644;23.284;2022-08-05T05:46:05;12.75;;;3.75;;
9228;SDS011;4649;42.644;23.284;2022-08-05T05:48:32;21.92;;;4.13;;
9228;SDS011;4649;42.644;23.284;2022-08-05T05:50:59;12.38;;;4.30;;
9228;SDS011;4649;42.644;23.284;2022-08-05T05:53:27;18.48;;;3.88;;
9228;SDS011;4649;42.644;23.284;2022-08-05T05:55:54;13.07;;;3.80;;
9228;SDS011;4649;42.644;23.284;2022-08-05T05:58:21;5.63;;;3.15;;
9228;SDS011;4649;42.644;23.284;2022-08-05T06:00:47;6.43;;;3.30;;
9228;SDS011;4649;42.644;23.284;2022-08-05T06:03:14;5.90;;;3.70;;
9228;SDS011;4649;42.644;23.284;2022-08-05T06:05:41;4.18;;;3.85;;
9228;SDS011;4649;42.644;23.284;2022-08-05T06:08:08;5.88;;;4.40;;
9228;SDS011;4649;42.644;23.284;2022-08-05T06:10:36;13.98;;;4.05;;
9228;SDS011;4649;42.644;23.284;2022-08-05T06:13:03;4.60;;;4.10;;
9228;SDS011;4649;42.644;23.284;2022-08-05T06:28:27;4.95;;;3.80;;
9228;SDS011;4649;42.644;23.284;2022-08-05T06:30:54;7.35;;;4.15;;
9228;SDS011;4649;42.644;23.284;2022-08-05T06:33:21;4.40;;;4.10;;
9228;SDS011;4649;42.644;23.284;2022-08-05T06:35:47;5.47;;;3.63;;
9228;SDS011;4649;42.644;23.284;2022-08-05T06:38:14;6.28;;;4.13;;
9228;SDS011;4649;42.644;23.284;2022-08-05T06:40:41;5.22;;;4.80;;
9228;SDS011;4649;42.644;23.284;2022-08-05T06:43:07;13.18;;;3.97;;
9228;SDS011;4649;42.644;23.284;2022-08-05T06:45:36;6.03;;;4.32;;
9228;SDS011;4649;42.644;23.284;2022-08-05T06:48:02;4.30;;;3.88;;
9228;SDS011;4649;42.644;23.284;2022-08-05T06:50:29;15.10;;;3.90;;
9228;SDS011;4649;42.644;23.284;2022-08-05T06:52:56;3.40;;;3.20;;
9228;SDS011;4649;42.644;23.284;2022-08-05T06:55:23;4.18;;;3.70;;
9228;SDS011;4649;42.644;23.284;2022-08-05T06:57:49;3.53;;;3.20;;
9228;SDS011;4649;42.644;23.284;2022-08-05T07:00:16;5.18;;;4.60;;
9228;SDS011;4649;42.644;23.284;2022-08-05T07:02:45;11.52;;;5.15;;
9228;SDS011;4649;42.644;23.284;2022-08-05T07:05:12;5.63;;;3.45;;
9228;SDS011;4649;42.644;23.284;2022-08-05T07:07:39;4.13;;;3.83;;
9228;SDS011;4649;42.644;23.284;2022-08-05T07:10:08;7.60;;;4.00;;
9228;SDS011;4649;42.644;23.284;2022-08-05T07:12:35;7.38;;;3.63;;
9228;SDS011;4649;42.644;23.284;2022-08-05T07:15:20;3.45;;;3.17;;
9228;SDS011;4649;42.644;23.284;2022-08-05T07:18:05;5.00;;;4.70;;
9228;SDS011;4649;42.644;23.284;2022-08-05T07:20:32;4.97;;;4.35;;
9228;SDS011;4649;42.644;23.284;2022-08-05T07:22:59;9.32;;;3.83;;
9228;SDS011;4649;42.644;23.284;2022-08-05T07:25:26;4.35;;;3.47;;
9228;SDS011;4649;42.644;23.284;2022-08-05T07:27:53;3.88;;;3.67;;
9228;SDS011;4649;42.644;23.284;2022-08-05T07:30:20;6.45;;;3.50;;
9228;SDS011;4649;42.644;23.284;2022-08-05T07:32:47;4.38;;;3.53;;
9228;SDS011;4649;42.644;23.284;2022-08-05T07:35:15;4.22;;;3.83;;
9228;SDS011;4649;42.644;23.284;2022-08-05T07:37:42;6.53;;;3.45;;
9228;SDS011;4649;42.644;23.284;2022-08-05T07:40:09;4.00;;;3.55;;
9228;SDS011;4649;42.644;23.284;2022-08-05T07:42:36;6.63;;;4.00;;
9228;SDS011;4649;42.644;23.284;2022-08-05T07:45:03;18.38;;;3.63;;
9228;SDS011;4649;42.644;23.284;2022-08-05T07:47:30;8.55;;;4.22;;
9228;SDS011;4649;42.644;23.284;2022-08-05T07:49:57;6.38;;;3.58;;
9228;SDS011;4649;42.644;23.284;2022-08-05T07:52:25;5.15;;;3.67;;
9228;SDS011;4649;42.644;23.284;2022-08-05T07:54:52;3.20;;;3.00;;
9228;SDS011;4649;42.644;23.284;2022-08-05T07:57:18;3.92;;;3.33;;
9228;SDS011;4649;42.644;23.284;2022-08-05T07:59:45;12.18;;;3.75;;
9228;SDS011;4649;42.644;23.284;2022-08-05T08:02:12;10.05;;;4.00;;
9228;SDS011;4649;42.644;23.284;2022-08-05T08:04:38;5.32;;;3.15;;
9228;SDS011;4649;42.644;23.284;2022-08-05T08:07:05;3.30;;;3.10;;
9228;SDS011;4649;42.644;23.284;2022-08-05T08:09:33;4.82;;;3.38;;
9228;SDS011;4649;42.644;23.284;2022-08-05T08:12:00;6.47;;;2.78;;
9228;SDS011;4649;42.644;23.284;2022-08-05T08:14:26;5.70;;;3.95;;
9228;SDS011;4649;42.644;23.284;2022-08-05T08:16:53;3.25;;;3.05;;
9228;SDS011;4649;42.644;23.284;2022-08-05T08:19:20;3.58;;;3.40;;
9228;SDS011;4649;42.644;23.284;2022-08-05T08:21:47;3.00;;;2.75;;
9228;SDS011;4649;42.644;23.284;2022-08-05T08:24:13;5.30;;;2.80;;
9228;SDS011;4649;42.644;23.284;2022-08-05T08:26:41;4.13;;;2.90;;
9228;SDS011;4649;42.644;23.284;2022-08-05T08:29:08;4.05;;;2.47;;
9228;SDS011;4649;42.644;23.284;2022-08-05T08:31:35;3.33;;;3.13;;
9228;SDS011;4649;42.644;23.284;2022-08-05T08:34:02;2.67;;;2.45;;
9228;SDS011;4649;42.644;23.284;2022-08-05T08:36:28;8.35;;;3.42;;
9228;SDS011;4649;42.644;23.284;2022-08-05T08:38:55;3.30;;;3.08;;
9228;SDS011;4649;42.644;23.284;2022-08-05T08:41:22;3.13;;;2.40;;
9228;SDS011;4649;42.644;23.284;2022-08-05T08:43:51;4.82;;;2.53;;
9228;SDS011;4649;42.644;23.284;2022-08-05T08:46:21;2.10;;;2.00;;
9228;SDS011;4649;42.644;23.284;2022-08-05T08:48:52;2.17;;;1.95;;
9228;SDS011;4649;42.644;23.284;2022-08-05T08:51:20;3.00;;;1.75;;
9228;SDS011;4649;42.644;23.284;2022-08-05T08:53:49;2.10;;;2.00;;
9228;SDS011;4649;42.644;23.284;2022-08-05T08:56:16;4.88;;;1.70;;
9228;SDS011;4649;42.644;23.284;2022-08-05T08:58:45;5.97;;;2.30;;
9228;SDS011;4649;42.644;23.284;2022-08-05T09:01:14;2.30;;;2.15;;
9228;SDS011;4649;42.644;23.284;2022-08-05T09:03:42;3.85;;;1.88;;
9228;SDS011;4649;42.644;23.284;2022-08-05T09:06:09;1.77;;;1.67;;
9228;SDS011;4649;42.644;23.284;2022-08-05T09:08:37;2.60;;;2.17;;
9228;SDS011;4649;42.644;23.284;2022-08-05T09:11:03;1.50;;;1.42;;
9228;SDS011;4649;42.644;23.284;2022-08-05T09:13:30;2.20;;;2.00;;
9228;SDS011;4649;42.644;23.284;2022-08-05T09:15:57;3.40;;;1.95;;
9228;SDS011;4649;42.644;23.284;2022-08-05T09:18:26;3.67;;;2.58;;
9228;SDS011;4649;42.644;23.284;2022-08-05T09:20:53;3.08;;;2.08;;
9228;SDS011;4649;42.644;23.284;2022-08-05T09:23:20;2.25;;;1.80;;
9228;SDS011;4649;42.644;23.284;2022-08-05T09:25:48;1.85;;;1.75;;
9228;SDS011;4649;42.644;23.284;2022-08-05T09:28:17;3.20;;;2.20;;
9228;SDS011;4649;42.644;23.284;2022-08-05T09:30:54;4.18;;;2.03;;
9228;SDS011;4649;42.644;23.284;2022-08-05T09:33:22;1.92;;;1.77;;
9228;SDS011;4649;42.644;23.284;2022-08-05T09:35:57;2.03;;;1.33;;
9228;SDS011;4649;42.644;23.284;2022-08-05T09:38:24;1.80;;;1.63;;
9228;SDS011;4649;42.644;23.284;2022-08-05T09:40:52;1.77;;;1.67;;
9228;SDS011;4649;42.644;23.284;2022-08-05T09:43:27;2.88;;;1.70;;
9228;SDS011;4649;42.644;23.284;2022-08-05T09:45:55;1.70;;;1.70;;
9228;SDS011;4649;42.644;23.284;2022-08-05T09:48:23;1.73;;;1.63;;
9228;SDS011;4649;42.644;23.284;2022-08-05T09:50:52;1.73;;;1.63;;
9228;SDS011;4649;42.644;23.284;2022-08-05T09:53:22;1.83;;;1.73;;
9228;SDS011;4649;42.644;23.284;2022-08-05T09:55:52;6.57;;;2.15;;
9228;SDS011;4649;42.644;23.284;2022-08-05T09:58:21;4.05;;;1.52;;
9228;SDS011;4649;42.644;23.284;2022-08-05T10:00:52;1.67;;;1.65;;
9228;SDS011;4649;42.644;23.284;2022-08-05T10:03:24;1.90;;;1.80;;
9228;SDS011;4649;42.644;23.284;2022-08-05T10:06:00;2.42;;;1.40;;
9228;SDS011;4649;42.644;23.284;2022-08-05T10:08:30;2.10;;;1.95;;
9228;SDS011;4649;42.644;23.284;2022-08-05T10:10:57;29.00;;;3.80;;
9228;SDS011;4649;42.644;23.284;2022-08-05T10:13:28;8.23;;;2.20;;
9228;SDS011;4649;42.644;23.284;2022-08-05T10:15:56;2.33;;;2.10;;
9228;SDS011;4649;42.644;23.284;2022-08-05T10:18:25;1.85;;;1.70;;
9228;SDS011;4649;42.644;23.284;2022-08-05T10:20:56;4.18;;;1.80;;
9228;SDS011;4649;42.644;23.284;2022-08-05T10:23:25;4.57;;;1.90;;
9228;SDS011;4649;42.644;23.284;2022-08-05T10:25:55;2.08;;;1.77;;
9228;SDS011;4649;42.644;23.284;2022-08-05T10:28:22;2.00;;;1.98;;
9228;SDS011;4649;42.644;23.284;2022-08-05T10:30:50;2.97;;;1.98;;
9228;SDS011;4649;42.644;23.284;2022-08-05T10:33:18;2.28;;;2.10;;
9228;SDS011;4649;42.644;23.284;2022-08-05T10:35:47;2.20;;;2.10;;
9228;SDS011;4649;42.644;23.284;2022-08-05T10:38:14;2.30;;;2.20;;
9228;SDS011;4649;42.644;23.284;2022-08-05T10:40:45;5.30;;;2.00;;
9228;SDS011;4649;42.644;23.284;2022-08-05T10:43:24;2.75;;;2.00;;
9228;SDS011;4649;42.644;23.284;2022-08-05T10:45:59;1.95;;;1.92;;
9228;SDS011;4649;42.644;23.284;2022-08-05T10:48:27;2.28;;;1.95;;
9228;SDS011;4649;42.644;23.284;2022-08-05T10:51:02;3.97;;;2.40;;
9228;SDS011;4649;42.644;23.284;2022-08-05T10:53:31;4.15;;;2.05;;
9228;SDS011;4649;42.644;23.284;2022-08-05T10:56:03;2.97;;;2.60;;
9228;SDS011;4649;42.644;23.284;2022-08-05T10:58:32;2.10;;;2.00;;
9228;SDS011;4649;42.644;23.284;2022-08-05T11:01:02;5.68;;;1.90;;
9228;SDS011;4649;42.644;23.284;2022-08-05T11:03:31;7.13;;;2.00;;
9228;SDS011;4649;42.644;23.284;2022-08-05T11:06:04;2.38;;;2.28;;
9228;SDS011;4649;42.644;23.284;2022-08-05T11:08:33;3.47;;;2.05;;
9228;SDS011;4649;42.644;23.284;2022-08-05T11:14:00;7.03;;;2.38;;
9228;SDS011;4649;42.644;23.284;2022-08-05T11:16:27;2.20;;;2.10;;
9228;SDS011;4649;42.644;23.284;2022-08-05T11:21:50;7.32;;;2.47;;
9228;SDS011;4649;42.644;23.284;2022-08-05T11:24:17;6.22;;;2.47;;
9228;SDS011;4649;42.644;23.284;2022-08-05T11:26:45;3.97;;;2.20;;
9228;SDS011;4649;42.644;23.284;2022-08-05T11:34:52;3.15;;;2.20;;
9228;SDS011;4649;42.644;23.284;2022-08-05T11:43:26;5.38;;;2.20;;
9228;SDS011;4649;42.644;23.284;2022-08-05T11:45:56;2.92;;;2.28;;
9228;SDS011;4649;42.644;23.284;2022-08-05T11:48:23;5.05;;;2.20;;
9228;SDS011;4649;42.644;23.284;2022-08-05T11:50:51;3.35;;;2.15;;
9228;SDS011;4649;42.644;23.284;2022-08-05T11:53:18;2.90;;;2.60;;
9228;SDS011;4649;42.644;23.284;2022-08-05T11:55:52;2.42;;;2.33;;
9228;SDS011;4649;42.644;23.284;2022-08-05T11:58:24;2.08;;;1.98;;
9228;SDS011;4649;42.644;23.284;2022-08-05T12:01:00;2.28;;;2.05;;
9228;SDS011;4649;42.644;23.284;2022-08-05T12:03:28;3.47;;;2.30;;
9228;SDS011;4649;42.644;23.284;2022-08-05T12:06:00;2.35;;;2.25;;
9228;SDS011;4649;42.644;23.284;2022-08-05T12:08:29;2.15;;;2.05;;
9228;SDS011;4649;42.644;23.284;2022-08-05T12:10:56;2.20;;;2.10;;
9228;SDS011;4649;42.644;23.284;2022-08-05T12:13:24;2.10;;;2.00;;
9228;SDS011;4649;42.644;23.284;2022-08-05T12:15:51;1.90;;;1.80;;
9228;SDS011;4649;42.644;23.284;2022-08-05T12:18:19;1.92;;;1.83;;
9228;SDS011;4649;42.644;23.284;2022-08-05T12:20:53;1.70;;;1.70;;
9228;SDS011;4649;42.644;23.284;2022-08-05T12:23:20;1.65;;;1.65;;
9228;SDS011;4649;42.644;23.284;2022-08-05T12:25:50;3.65;;;1.70;;
9228;SDS011;4649;42.644;23.284;2022-08-05T12:28:33;2.00;;;1.90;;
9228;SDS011;4649;42.644;23.284;2022-08-05T12:31:01;2.55;;;2.20;;
9228;SDS011;4649;42.644;23.284;2022-08-05T12:33:30;4.32;;;1.80;;
9228;SDS011;4649;42.644;23.284;2022-08-05T12:35:58;3.47;;;1.95;;
9228;SDS011;4649;42.644;23.284;2022-08-05T12:38:26;2.40;;;2.30;;
9228;SDS011;4649;42.644;23.284;2022-08-05T12:40:54;2.60;;;2.50;;
9228;SDS011;4649;42.644;23.284;2022-08-05T12:43:21;4.70;;;2.65;;
9228;SDS011;4649;42.644;23.284;2022-08-05T12:45:51;20.42;;;3.05;;
9228;SDS011;4649;42.644;23.284;2022-08-05T12:48:18;2.13;;;2.03;;
9228;SDS011;4649;42.644;23.284;2022-08-05T12:53:46;7.82;;;2.55;;
9228;SDS011;4649;42.644;23.284;2022-08-05T12:56:17;5.50;;;2.20;;
9228;SDS011;4649;42.644;23.284;2022-08-05T13:01:37;2.97;;;1.90;;
9228;SDS011;4649;42.644;23.284;2022-08-05T13:04:04;10.90;;;2.95;;
9228;SDS011;4649;42.644;23.284;2022-08-05T13:06:31;2.65;;;2.45;;
9228;SDS011;4649;42.644;23.284;2022-08-05T13:09:02;3.03;;;2.38;;
9228;SDS011;4649;42.644;23.284;2022-08-05T13:11:32;2.75;;;2.05;;
9228;SDS011;4649;42.644;23.284;2022-08-05T13:13:58;2.38;;;2.00;;
9228;SDS011;4649;42.644;23.284;2022-08-05T13:16:25;5.03;;;2.47;;
9228;SDS011;4649;42.644;23.284;2022-08-05T13:18:52;5.13;;;2.00;;
9228;SDS011;4649;42.644;23.284;2022-08-05T13:21:20;4.28;;;2.10;;
9228;SDS011;4649;42.644;23.284;2022-08-05T13:23:47;3.00;;;2.40;;
9228;SDS011;4649;42.644;23.284;2022-08-05T13:26:15;2.15;;;1.98;;
9228;SDS011;4649;42.644;23.284;2022-08-05T13:28:42;13.43;;;2.67;;
9228;SDS011;4649;42.644;23.284;2022-08-05T13:31:09;2.30;;;2.05;;
9228;SDS011;4649;42.644;23.284;2022-08-05T13:33:35;2.67;;;2.47;;
9228;SDS011;4649;42.644;23.284;2022-08-05T13:36:02;2.28;;;2.17;;
9228;SDS011;4649;42.644;23.284;2022-08-05T13:38:29;3.53;;;2.20;;
9228;SDS011;4649;42.644;23.284;2022-08-05T13:40:56;9.98;;;2.90;;
9228;SDS011;4649;42.644;23.284;2022-08-05T13:43:24;2.00;;;1.90;;
9228;SDS011;4649;42.644;23.284;2022-08-05T13:45:51;2.60;;;2.28;;
9228;SDS011;4649;42.644;23.284;2022-08-05T13:48:17;1.92;;;1.83;;
9228;SDS011;4649;42.644;23.284;2022-08-05T13:50:44;2.05;;;1.95;;
9228;SDS011;4649;42.644;23.284;2022-08-05T13:53:11;4.97;;;2.40;;
9228;SDS011;4649;42.644;23.284;2022-08-05T13:55:37;2.47;;;2.28;;
9228;SDS011;4649;42.644;23.284;2022-08-05T13:58:04;4.55;;;2.38;;
9228;SDS011;4649;42.644;23.284;2022-08-05T14:00:32;2.42;;;2.22;;
9228;SDS011;4649;42.644;23.284;2022-08-05T14:03:00;2.85;;;2.35;;
9228;SDS011;4649;42.644;23.284;2022-08-05T14:05:27;1.80;;;1.80;;
9228;SDS011;4649;42.644;23.284;2022-08-05T14:07:53;2.28;;;2.17;;
9228;SDS011;4649;42.644;23.284;2022-08-05T14:10:20;2.88;;;2.78;;
9228;SDS011;4649;42.644;23.284;2022-08-05T14:12:48;2.47;;;2.38;;
9228;SDS011;4649;42.644;23.284;2022-08-05T14:15:14;5.45;;;2.30;;
9228;SDS011;4649;42.644;23.284;2022-08-05T14:17:43;2.25;;;2.05;;
9228;SDS011;4649;42.644;23.284;2022-08-05T14:20:10;2.70;;;2.60;;
9228;SDS011;4649;42.644;23.284;2022-08-05T14:22:38;1.90;;;1.80;;
9228;SDS011;4649;42.644;23.284;2022-08-05T14:25:06;3.22;;;1.75;;
9228;SDS011;4649;42.644;23.284;2022-08-05T14:27:35;1.95;;;1.85;;
9228;SDS011;4649;42.644;23.284;2022-08-05T14:30:02;2.25;;;2.15;;
9228;SDS011;4649;42.644;23.284;2022-08-05T14:32:29;2.00;;;1.90;;
9228;SDS011;4649;42.644;23.284;2022-08-05T14:34:57;2.63;;;1.85;;
9228;SDS011;4649;42.644;23.284;2022-08-05T14:37:24;2.90;;;2.70;;
9228;SDS011;4649;42.644;23.284;2022-08-05T14:39:51;2.17;;;2.00;;
9228;SDS011;4649;42.644;23.284;2022-08-05T14:42:17;5.72;;;1.95;;
9228;SDS011;4649;42.644;23.284;2022-08-05T14:44:44;2.03;;;1.98;;
9228;SDS011;4649;42.644;23.284;2022-08-05T14:47:11;2.42;;;2.22;;
9228;SDS011;4649;42.644;23.284;2022-08-05T14:49:37;2.75;;;2.00;;
9228;SDS011;4649;42.644;23.284;2022-08-05T14:52:06;2.10;;;2.00;;
9228;SDS011;4649;42.644;23.284;2022-08-05T14:54:33;2.00;;;1.90;;
9228;SDS011;4649;42.644;23.284;2022-08-05T14:57:00;1.80;;;1.75;;
9228;SDS011;4649;42.644;23.284;2022-08-05T14:59:27;1.88;;;1.77;;
9228;SDS011;4649;42.644;23.284;2022-08-05T15:01:54;1.83;;;1.83;;
9228;SDS011;4649;42.644;23.284;2022-08-05T15:04:20;1.70;;;1.70;;
9228;SDS011;4649;42.644;23.284;2022-08-05T15:06:48;1.83;;;1.73;;
9228;SDS011;4649;42.644;23.284;2022-08-05T15:09:17;2.00;;;1.90;;
9228;SDS011;4649;42.644;23.284;2022-08-05T15:11:44;1.95;;;1.85;;
9228;SDS011;4649;42.644;23.284;2022-08-05T15:14:11;3.75;;;1.45;;
9228;SDS011;4649;42.644;23.284;2022-08-05T15:16:38;1.80;;;1.70;;
9228;SDS011;4649;42.644;23.284;2022-08-05T15:19:05;2.28;;;2.03;;
9228;SDS011;4649;42.644;23.284;2022-08-05T15:21:32;2.03;;;1.92;;
9228;SDS011;4649;42.644;23.284;2022-08-05T15:23:59;2.28;;;2.17;;
9228;SDS011;4649;42.644;23.284;2022-08-05T15:26:27;1.83;;;1.73;;
9228;SDS011;4649;42.644;23.284;2022-08-05T15:28:53;2.03;;;1.92;;
9228;SDS011;4649;42.644;23.284;2022-08-05T15:31:20;1.92;;;1.83;;
9228;SDS011;4649;42.644;23.284;2022-08-05T15:33:47;1.75;;;1.60;;
9228;SDS011;4649;42.644;23.284;2022-08-05T15:36:14;1.73;;;1.73;;
9228;SDS011;4649;42.644;23.284;2022-08-05T15:38:41;1.70;;;1.70;;
9228;SDS011;4649;42.644;23.284;2022-08-05T15:41:07;1.88;;;1.77;;
9228;SDS011;4649;42.644;23.284;2022-08-05T15:43:36;2.97;;;1.80;;
9228;SDS011;4649;42.644;23.284;2022-08-05T15:46:02;5.07;;;1.67;;
9228;SDS011;4649;42.644;23.284;2022-08-05T15:48:29;5.03;;;1.65;;